Flight Track Log - Related Links

Times and Time Zones

All times are in EDT time to prevent confusion due to time zone crossing. See the QLK380 flight status page for this flight to view local times or setup timezone preferences in your user account.

Time Position Orientation Groundspeed Altitude Reporting Facility
EDT Latitude Longitude Course Direction KTS MPH feet Rate Location/Type
Tue 03:02:40 AM -27.4130 153.1135 273° West 128 147 900  Level Aus ATC (RADAR)
Tue 03:03:16 AM -27.4118 153.0869 273° West 154 177 1,600 1,575 Climbing Aus ATC (RADAR)
Tue 03:04:00 AM -27.3847 153.0573 316° Northwest 172 198 3,000 1,747 Climbing Aus ATC (RADAR)
Tue 03:04:35 AM -27.3637 153.0336 315° West 177 204 3,900 1,650 Climbing Aus ATC (RADAR)
Tue 03:05:20 AM -27.3269 153.0372 North 175 201 5,200 1,657 Climbing Aus ATC (RADAR)
Tue 03:06:20 AM -27.2788 153.0412 North 176 203 6,800 1,488 Climbing Aus ATC (RADAR)
Tue 03:07:25 AM -27.2241 153.0457 North 184 212 8,300 1,304 Climbing Aus ATC (RADAR)
Tue 03:08:15 AM -27.1791 153.0504 North 196 226 9,300 1,137 Climbing Aus ATC (RADAR)
Tue 03:09:00 AM -27.1364 153.0530 North 204 235 10,100 1,139 Climbing Aus ATC (RADAR)
Tue 03:09:34 AM -27.1032 153.0552 North 204 235 10,800 1,129 Climbing Aus ATC (RADAR)
Tue 03:10:25 AM -27.0553 153.0589 North 207 238 11,700 982 Climbing Aus ATC (RADAR)
Tue 03:11:24 AM -26.9980 153.0620 North 207 238 12,600 895 Climbing Aus ATC (RADAR)
Tue 03:12:19 AM -26.9437 153.0660 North 214 246 13,400 776 Climbing Aus ATC (RADAR)
Tue 03:13:20 AM -26.8843 153.0598 355° North 214 246 14,100 660 Climbing Aus ATC (RADAR)
Tue 03:13:59 AM -26.8440 153.0547 354° North 219 252 14,500 243 Climbing Aus ATC (RADAR)
Tue 03:14:34 AM -26.8054 153.0499 354° North 237 273 14,400 -75 Descending Aus ATC (RADAR)
Tue 03:15:19 AM -26.7533 153.0443 354° North 251 289 14,400  Level Aus ATC (RADAR)
Tue 03:16:19 AM -26.6817 153.0363 354° North 260 299 14,400  Level Aus ATC (RADAR)
Tue 03:17:50 AM -26.5732 153.0224 353° North 261 300 14,400  Level Aus ATC (RADAR)
Tue 03:18:45 AM -26.5100 153.0006 343° North 258 297 14,400  Level Aus ATC (RADAR)
Tue 03:19:24 AM -26.4636 152.9866 345° North 258 297 14,400  Level Aus ATC (RADAR)
Tue 03:20:09 AM -26.4106 152.9711 345° North 262 302 14,400  Level Aus ATC (RADAR)
Tue 03:21:09 AM -26.3400 152.9495 345° North 263 303 14,400  Level Aus ATC (RADAR)
Tue 03:22:19 AM -26.2570 152.9252 345° North 265 305 14,400  Level Aus ATC (RADAR)
Tue 03:22:59 AM -26.2094 152.9113 345° North 265 305 14,400  Level Aus ATC (RADAR)
Tue 03:23:34 AM -26.1681 152.8985 344° North 264 304 14,400  Level Aus ATC (RADAR)
Tue 03:24:08 AM -26.1268 152.8867 346° North 263 303 14,400  Level Aus ATC (RADAR)
Tue 03:24:53 AM -26.0732 152.8707 345° North 265 305 14,400  Level Aus ATC (RADAR)
Tue 03:25:53 AM -26.0021 152.8497 345° North 263 303 14,400  Level Aus ATC (RADAR)
Tue 03:26:48 AM -25.9367 152.8301 345° North 264 304 14,400  Level Aus ATC (RADAR)
Tue 03:27:23 AM -25.8955 152.8180 345° North 262 302 14,400  Level Aus ATC (RADAR)
Tue 03:28:03 AM -25.8483 152.8043 345° North 262 302 14,400  Level Aus ATC (RADAR)
Tue 03:29:03 AM -25.7772 152.7839 346° North 263 303 14,400 -382 Level Aus ATC (RADAR)
Tue 03:29:53 AM -25.7175 152.7662 345° North 268 308 13,700 -1,047 Descending Aus ATC (RADAR)
Tue 03:30:29 AM -25.6740 152.7522 344° North 280 322 12,900 -1,450 Descending Aus ATC (RADAR)
Tue 03:31:53 AM -25.5683 152.7218 345° North 267 307 10,800 -1,474 Descending Aus ATC (RADAR)
Tue 03:32:23 AM -25.5346 152.7114 345° North 251 289 10,100 -1,455 Descending Aus ATC (RADAR)
Tue 03:33:32 AM -25.4541 152.6907 347° North 257 296 8,400 -1,412 Descending Aus ATC (RADAR)
Tue 03:34:22 AM -25.4006 152.6732 344° North 238 274 7,300 -1,326 Descending Aus ATC (RADAR)
Tue 03:35:07 AM -25.3583 152.6606 345° North 211 243 6,300 -1,333 Descending Aus ATC (RADAR)
Tue 03:38:36 AM -25.3231 152.8238 85° East -1,809 Descending Aus ATC (Calculated)
Tue 03:40:00 AM -25.3189 152.8803 85° East  Level Estimated
Tue 03:41:00 AM -25.3189 152.8803 299° West  Level Estimated
Tue 03:42:00 AM -25.3189 152.8803 299° West  Level Estimated
Tue 03:43:00 AM -25.3189 152.8803 299° West  Level Estimated
Tue 03:44:00 AM -25.3189 152.8803 299° West  Level Estimated
Tue 03:45:00 AM -25.3189 152.8803 299° West  Level Estimated
Tue 03:46:00 AM -25.3189 152.8803 299° West  Level Estimated

Login

Don't have an account? Register now (free) for customized features, flight alerts, and more!